EKYT/AAL METAR and TAF weather

Enter ICAO airport designator
Station Type Date Time Source
EKYT METAR 2019/02/23 22:50 UTC NOAA

EKYT 232250Z AUTO 22006KT 9999 FEW200/// 03/M01 Q1036


Station Type Date Time Source
EKYT Decoded METAR 2019/02/23 22:50 UTC NOAA

Aalborg, Denmark (EKYT) 57-06N 009-51E 13M
Feb 23, 2019 - 05:50 PM EST / 2019.02.23 2250 UTC
Wind: from the SW (220 degrees) at 7 MPH (6 KT):0
Visibility: greater than 7 mile(s):0
Sky conditions: mostly clear
Temperature: 37 F (3 C)
Dew Point: 30 F (-1 C)
Relative Humidity: 74%
Pressure (altimeter): 30.59 in. Hg (1036 hPa)
ob: EKYT 232250Z AUTO 22006KT 9999 FEW200/// 03/M01 Q1036
cycle: 23

Station Type Date Time Source
EKYT TAF 2019/02/23 21:36 UTC NOAA

TAF EKYT 232025Z 2321/2418 23008KT 9999 SCT160
TEMPO 2402/2404 7000 BKN012
BECMG 2404/2407 4000 BR BKN008
TEMPO 2407/2418 2000 BKN004


Example: see airport list